sensor_id;sensor_type;location;lat;lon;timestamp;P1;durP1;ratioP1;P2;durP2;ratioP2
25359;SDS011;13311;51.386;0.016;2023-11-21T00:02:56;6.13;;;2.45;;
25359;SDS011;13311;51.386;0.016;2023-11-21T00:07:57;3.75;;;2.70;;
25359;SDS011;13311;51.386;0.016;2023-11-21T00:12:58;3.85;;;2.92;;
25359;SDS011;13311;51.386;0.016;2023-11-21T00:17:59;3.95;;;2.53;;
25359;SDS011;13311;51.386;0.016;2023-11-21T00:23:00;7.30;;;3.20;;
25359;SDS011;13311;51.386;0.016;2023-11-21T00:28:02;5.15;;;2.95;;
25359;SDS011;13311;51.386;0.016;2023-11-21T00:33:03;3.25;;;2.58;;
25359;SDS011;13311;51.386;0.016;2023-11-21T00:38:05;4.82;;;3.20;;
25359;SDS011;13311;51.386;0.016;2023-11-21T00:43:05;4.55;;;3.30;;
25359;SDS011;13311;51.386;0.016;2023-11-21T00:48:06;5.03;;;3.20;;
25359;SDS011;13311;51.386;0.016;2023-11-21T00:53:08;4.72;;;3.05;;
25359;SDS011;13311;51.386;0.016;2023-11-21T00:58:09;7.05;;;4.07;;
25359;SDS011;13311;51.386;0.016;2023-11-21T01:03:10;5.65;;;3.22;;
25359;SDS011;13311;51.386;0.016;2023-11-21T01:08:11;3.72;;;3.17;;
25359;SDS011;13311;51.386;0.016;2023-11-21T01:13:12;3.83;;;3.42;;
25359;SDS011;13311;51.386;0.016;2023-11-21T01:18:15;3.65;;;3.20;;
25359;SDS011;13311;51.386;0.016;2023-11-21T01:23:15;4.28;;;3.88;;
25359;SDS011;13311;51.386;0.016;2023-11-21T01:28:16;3.35;;;2.92;;
25359;SDS011;13311;51.386;0.016;2023-11-21T01:33:17;3.00;;;2.50;;
25359;SDS011;13311;51.386;0.016;2023-11-21T01:38:18;2.95;;;2.50;;
25359;SDS011;13311;51.386;0.016;2023-11-21T01:43:19;3.92;;;3.35;;
25359;SDS011;13311;51.386;0.016;2023-11-21T01:48:19;4.72;;;2.45;;
25359;SDS011;13311;51.386;0.016;2023-11-21T01:53:21;2.92;;;2.40;;
25359;SDS011;13311;51.386;0.016;2023-11-21T01:58:23;2.83;;;2.10;;
25359;SDS011;13311;51.386;0.016;2023-11-21T02:03:24;2.97;;;1.88;;
25359;SDS011;13311;51.386;0.016;2023-11-21T02:08:26;2.17;;;1.75;;
25359;SDS011;13311;51.386;0.016;2023-11-21T02:13:27;2.90;;;1.65;;
25359;SDS011;13311;51.386;0.016;2023-11-21T02:18:28;3.03;;;1.50;;
25359;SDS011;13311;51.386;0.016;2023-11-21T02:23:37;1.75;;;1.20;;
25359;SDS011;13311;51.386;0.016;2023-11-21T02:28:42;1.00;;;0.95;;
25359;SDS011;13311;51.386;0.016;2023-11-21T02:33:43;2.28;;;1.45;;
25359;SDS011;13311;51.386;0.016;2023-11-21T02:38:46;1.30;;;1.20;;
25359;SDS011;13311;51.386;0.016;2023-11-21T02:43:47;2.67;;;1.13;;
25359;SDS011;13311;51.386;0.016;2023-11-21T02:48:48;2.35;;;1.40;;
25359;SDS011;13311;51.386;0.016;2023-11-21T02:53:54;3.63;;;2.15;;
25359;SDS011;13311;51.386;0.016;2023-11-21T02:59:00;1.35;;;1.02;;
25359;SDS011;13311;51.386;0.016;2023-11-21T03:04:01;2.85;;;1.67;;
25359;SDS011;13311;51.386;0.016;2023-11-21T03:09:02;2.33;;;1.95;;
25359;SDS011;13311;51.386;0.016;2023-11-21T03:14:03;3.10;;;2.80;;
25359;SDS011;13311;51.386;0.016;2023-11-21T03:19:05;4.05;;;3.00;;
25359;SDS011;13311;51.386;0.016;2023-11-21T03:24:06;2.55;;;2.35;;
25359;SDS011;13311;51.386;0.016;2023-11-21T03:29:07;1.88;;;1.70;;
25359;SDS011;13311;51.386;0.016;2023-11-21T03:34:10;3.90;;;2.97;;
25359;SDS011;13311;51.386;0.016;2023-11-21T03:39:16;3.40;;;2.53;;
25359;SDS011;13311;51.386;0.016;2023-11-21T03:44:16;2.90;;;2.17;;
25359;SDS011;13311;51.386;0.016;2023-11-21T03:49:17;2.92;;;2.30;;
25359;SDS011;13311;51.386;0.016;2023-11-21T03:54:18;4.38;;;2.20;;
25359;SDS011;13311;51.386;0.016;2023-11-21T03:59:19;2.10;;;1.60;;
25359;SDS011;13311;51.386;0.016;2023-11-21T04:04:19;1.25;;;1.15;;
25359;SDS011;13311;51.386;0.016;2023-11-21T04:09:21;2.25;;;1.30;;
25359;SDS011;13311;51.386;0.016;2023-11-21T04:14:25;2.15;;;1.45;;
25359;SDS011;13311;51.386;0.016;2023-11-21T04:19:25;1.05;;;0.85;;
25359;SDS011;13311;51.386;0.016;2023-11-21T04:24:26;1.35;;;1.15;;
25359;SDS011;13311;51.386;0.016;2023-11-21T04:29:27;0.68;;;0.65;;
25359;SDS011;13311;51.386;0.016;2023-11-21T04:34:28;1.75;;;1.50;;
25359;SDS011;13311;51.386;0.016;2023-11-21T04:39:31;1.85;;;1.10;;
25359;SDS011;13311;51.386;0.016;2023-11-21T04:44:31;1.25;;;1.00;;
25359;SDS011;13311;51.386;0.016;2023-11-21T04:49:32;0.95;;;0.88;;
25359;SDS011;13311;51.386;0.016;2023-11-21T04:54:33;1.48;;;0.70;;
25359;SDS011;13311;51.386;0.016;2023-11-21T04:59:35;1.48;;;0.85;;
25359;SDS011;13311;51.386;0.016;2023-11-21T05:04:36;1.00;;;0.82;;
25359;SDS011;13311;51.386;0.016;2023-11-21T05:09:40;1.13;;;0.70;;
25359;SDS011;13311;51.386;0.016;2023-11-21T05:14:44;1.48;;;0.98;;
25359;SDS011;13311;51.386;0.016;2023-11-21T05:19:44;2.47;;;1.13;;
25359;SDS011;13311;51.386;0.016;2023-11-21T05:24:46;2.58;;;0.80;;
25359;SDS011;13311;51.386;0.016;2023-11-21T05:29:49;0.85;;;0.80;;
25359;SDS011;13311;51.386;0.016;2023-11-21T05:34:51;0.75;;;0.75;;
25359;SDS011;13311;51.386;0.016;2023-11-21T05:39:53;1.65;;;1.13;;
25359;SDS011;13311;51.386;0.016;2023-11-21T05:44:56;2.25;;;1.30;;
25359;SDS011;13311;51.386;0.016;2023-11-21T05:49:59;1.60;;;1.25;;
25359;SDS011;13311;51.386;0.016;2023-11-21T05:55:00;2.92;;;1.00;;
25359;SDS011;13311;51.386;0.016;2023-11-21T06:00:00;1.80;;;1.10;;
25359;SDS011;13311;51.386;0.016;2023-11-21T06:05:06;2.15;;;1.35;;
25359;SDS011;13311;51.386;0.016;2023-11-21T06:10:11;2.08;;;1.88;;
25359;SDS011;13311;51.386;0.016;2023-11-21T06:15:17;2.15;;;1.50;;
25359;SDS011;13311;51.386;0.016;2023-11-21T06:20:23;4.18;;;2.03;;
25359;SDS011;13311;51.386;0.016;2023-11-21T06:25:23;2.00;;;1.50;;
25359;SDS011;13311;51.386;0.016;2023-11-21T06:30:24;1.73;;;1.30;;
25359;SDS011;13311;51.386;0.016;2023-11-21T06:35:25;2.88;;;1.10;;
25359;SDS011;13311;51.386;0.016;2023-11-21T06:40:27;1.90;;;1.20;;
25359;SDS011;13311;51.386;0.016;2023-11-21T06:45:28;1.95;;;0.90;;
25359;SDS011;13311;51.386;0.016;2023-11-21T06:50:30;2.13;;;1.30;;
25359;SDS011;13311;51.386;0.016;2023-11-21T06:55:31;1.48;;;0.93;;
25359;SDS011;13311;51.386;0.016;2023-11-21T07:00:32;2.72;;;1.08;;
25359;SDS011;13311;51.386;0.016;2023-11-21T07:05:33;3.03;;;0.90;;
25359;SDS011;13311;51.386;0.016;2023-11-21T07:10:41;3.80;;;1.02;;
25359;SDS011;13311;51.386;0.016;2023-11-21T07:15:42;2.55;;;1.30;;
25359;SDS011;13311;51.386;0.016;2023-11-21T07:20:43;0.95;;;0.63;;
25359;SDS011;13311;51.386;0.016;2023-11-21T07:25:44;2.58;;;1.27;;
25359;SDS011;13311;51.386;0.016;2023-11-21T07:30:45;2.22;;;1.40;;
25359;SDS011;13311;51.386;0.016;2023-11-21T07:35:46;1.77;;;1.25;;
25359;SDS011;13311;51.386;0.016;2023-11-21T07:40:46;1.63;;;1.13;;
25359;SDS011;13311;51.386;0.016;2023-11-21T07:45:47;2.47;;;1.25;;
25359;SDS011;13311;51.386;0.016;2023-11-21T07:50:48;2.97;;;1.05;;
25359;SDS011;13311;51.386;0.016;2023-11-21T07:55:49;3.85;;;1.48;;
25359;SDS011;13311;51.386;0.016;2023-11-21T08:00:49;3.60;;;1.40;;
25359;SDS011;13311;51.386;0.016;2023-11-21T08:05:50;2.53;;;1.30;;
25359;SDS011;13311;51.386;0.016;2023-11-21T08:10:51;3.60;;;1.55;;
25359;SDS011;13311;51.386;0.016;2023-11-21T08:16:00;4.60;;;1.95;;
25359;SDS011;13311;51.386;0.016;2023-11-21T08:21:03;3.55;;;2.05;;
25359;SDS011;13311;51.386;0.016;2023-11-21T08:26:05;3.10;;;2.20;;
25359;SDS011;13311;51.386;0.016;2023-11-21T08:31:06;2.40;;;1.85;;
25359;SDS011;13311;51.386;0.016;2023-11-21T08:36:09;7.95;;;2.78;;
25359;SDS011;13311;51.386;0.016;2023-11-21T08:41:12;2.53;;;1.50;;
25359;SDS011;13311;51.386;0.016;2023-11-21T08:46:14;5.60;;;1.75;;
25359;SDS011;13311;51.386;0.016;2023-11-21T08:51:17;2.42;;;1.50;;
25359;SDS011;13311;51.386;0.016;2023-11-21T08:56:18;3.58;;;1.70;;
25359;SDS011;13311;51.386;0.016;2023-11-21T09:01:20;2.83;;;1.85;;
25359;SDS011;13311;51.386;0.016;2023-11-21T09:06:21;3.50;;;1.30;;
25359;SDS011;13311;51.386;0.016;2023-11-21T09:11:22;2.47;;;1.38;;
25359;SDS011;13311;51.386;0.016;2023-11-21T09:16:25;3.85;;;2.08;;
25359;SDS011;13311;51.386;0.016;2023-11-21T09:21:26;3.25;;;1.50;;
25359;SDS011;13311;51.386;0.016;2023-11-21T09:26:27;3.78;;;1.98;;
25359;SDS011;13311;51.386;0.016;2023-11-21T09:31:30;4.25;;;2.10;;
25359;SDS011;13311;51.386;0.016;2023-11-21T09:36:31;4.05;;;2.00;;
25359;SDS011;13311;51.386;0.016;2023-11-21T09:46:41;3.58;;;1.27;;
25359;SDS011;13311;51.386;0.016;2023-11-21T09:51:43;2.53;;;1.40;;
25359;SDS011;13311;51.386;0.016;2023-11-21T09:56:44;2.03;;;1.33;;
25359;SDS011;13311;51.386;0.016;2023-11-21T10:01:50;3.65;;;1.27;;
25359;SDS011;13311;51.386;0.016;2023-11-21T10:06:51;2.85;;;1.50;;
25359;SDS011;13311;51.386;0.016;2023-11-21T10:11:53;2.33;;;1.05;;
25359;SDS011;13311;51.386;0.016;2023-11-21T10:16:56;2.25;;;0.90;;
25359;SDS011;13311;51.386;0.016;2023-11-21T10:21:58;1.83;;;1.10;;
25359;SDS011;13311;51.386;0.016;2023-11-21T10:27:04;3.42;;;1.25;;
25359;SDS011;13311;51.386;0.016;2023-11-21T10:32:04;2.03;;;1.38;;
25359;SDS011;13311;51.386;0.016;2023-11-21T10:37:12;1.90;;;0.98;;
25359;SDS011;13311;51.386;0.016;2023-11-21T10:42:13;2.58;;;1.33;;
25359;SDS011;13311;51.386;0.016;2023-11-21T10:47:18;2.15;;;1.02;;
25359;SDS011;13311;51.386;0.016;2023-11-21T10:52:20;1.83;;;1.10;;
25359;SDS011;13311;51.386;0.016;2023-11-21T10:57:21;3.05;;;1.20;;
25359;SDS011;13311;51.386;0.016;2023-11-21T11:02:24;1.20;;;0.68;;
25359;SDS011;13311;51.386;0.016;2023-11-21T11:07:27;0.82;;;0.60;;
25359;SDS011;13311;51.386;0.016;2023-11-21T11:12:30;1.15;;;0.80;;
25359;SDS011;13311;51.386;0.016;2023-11-21T11:17:31;1.50;;;1.05;;
25359;SDS011;13311;51.386;0.016;2023-11-21T11:22:44;1.58;;;0.70;;
25359;SDS011;13311;51.386;0.016;2023-11-21T11:28:21;1.33;;;0.60;;
25359;SDS011;13311;51.386;0.016;2023-11-21T11:33:45;1.50;;;0.80;;
25359;SDS011;13311;51.386;0.016;2023-11-21T11:38:53;2.30;;;0.82;;
25359;SDS011;13311;51.386;0.016;2023-11-21T11:43:56;1.08;;;0.57;;
25359;SDS011;13311;51.386;0.016;2023-11-21T11:49:02;0.95;;;0.70;;
25359;SDS011;13311;51.386;0.016;2023-11-21T11:54:03;7.38;;;2.40;;
25359;SDS011;13311;51.386;0.016;2023-11-21T11:59:06;1.83;;;0.80;;
25359;SDS011;13311;51.386;0.016;2023-11-21T12:09:23;2.72;;;1.42;;
25359;SDS011;13311;51.386;0.016;2023-11-21T12:14:26;2.55;;;1.02;;
25359;SDS011;13311;51.386;0.016;2023-11-21T12:19:28;1.55;;;1.00;;
25359;SDS011;13311;51.386;0.016;2023-11-21T12:24:29;0.95;;;0.93;;
25359;SDS011;13311;51.386;0.016;2023-11-21T12:29:30;2.95;;;1.30;;
25359;SDS011;13311;51.386;0.016;2023-11-21T12:34:31;1.35;;;1.00;;
25359;SDS011;13311;51.386;0.016;2023-11-21T12:39:33;1.80;;;1.30;;
25359;SDS011;13311;51.386;0.016;2023-11-21T12:45:20;2.33;;;1.35;;
25359;SDS011;13311;51.386;0.016;2023-11-21T12:50:31;1.42;;;1.25;;
25359;SDS011;13311;51.386;0.016;2023-11-21T12:55:34;2.17;;;1.60;;
25359;SDS011;13311;51.386;0.016;2023-11-21T13:00:39;2.85;;;2.13;;
25359;SDS011;13311;51.386;0.016;2023-11-21T13:05:44;2.15;;;1.65;;
25359;SDS011;13311;51.386;0.016;2023-11-21T13:10:51;3.53;;;1.90;;
25359;SDS011;13311;51.386;0.016;2023-11-21T13:15:56;2.28;;;1.40;;
25359;SDS011;13311;51.386;0.016;2023-11-21T13:21:05;7.80;;;2.40;;
25359;SDS011;13311;51.386;0.016;2023-11-21T13:26:17;7.20;;;2.20;;
25359;SDS011;13311;51.386;0.016;2023-11-21T13:31:20;21.80;;;4.25;;
25359;SDS011;13311;51.386;0.016;2023-11-21T13:36:22;2.35;;;1.00;;
25359;SDS011;13311;51.386;0.016;2023-11-21T13:41:24;6.15;;;1.50;;
25359;SDS011;13311;51.386;0.016;2023-11-21T13:46:31;2.08;;;0.98;;
25359;SDS011;13311;51.386;0.016;2023-11-21T13:51:37;3.55;;;0.82;;
25359;SDS011;13311;51.386;0.016;2023-11-21T13:56:43;11.07;;;1.58;;
25359;SDS011;13311;51.386;0.016;2023-11-21T14:01:46;2.03;;;0.60;;
25359;SDS011;13311;51.386;0.016;2023-11-21T14:06:55;2.03;;;0.77;;
25359;SDS011;13311;51.386;0.016;2023-11-21T14:11:56;1.05;;;0.95;;
25359;SDS011;13311;51.386;0.016;2023-11-21T14:16:57;1.45;;;0.80;;
25359;SDS011;13311;51.386;0.016;2023-11-21T14:22:06;5.10;;;1.00;;
25359;SDS011;13311;51.386;0.016;2023-11-21T14:27:10;1.77;;;0.90;;
25359;SDS011;13311;51.386;0.016;2023-11-21T14:32:11;4.72;;;1.00;;
25359;SDS011;13311;51.386;0.016;2023-11-21T14:37:12;5.63;;;1.40;;
25359;SDS011;13311;51.386;0.016;2023-11-21T14:42:13;7.70;;;1.83;;
25359;SDS011;13311;51.386;0.016;2023-11-21T14:47:24;2.10;;;1.08;;
25359;SDS011;13311;51.386;0.016;2023-11-21T14:52:27;5.22;;;1.30;;
25359;SDS011;13311;51.386;0.016;2023-11-21T14:57:34;3.85;;;1.30;;
25359;SDS011;13311;51.386;0.016;2023-11-21T15:02:35;8.30;;;1.58;;
25359;SDS011;13311;51.386;0.016;2023-11-21T15:07:49;8.05;;;1.30;;
25359;SDS011;13311;51.386;0.016;2023-11-21T15:12:52;5.50;;;1.50;;
25359;SDS011;13311;51.386;0.016;2023-11-21T15:17:53;3.10;;;1.20;;
25359;SDS011;13311;51.386;0.016;2023-11-21T15:22:53;10.55;;;1.67;;
25359;SDS011;13311;51.386;0.016;2023-11-21T15:27:54;6.22;;;1.95;;
25359;SDS011;13311;51.386;0.016;2023-11-21T15:32:56;6.47;;;1.98;;
25359;SDS011;13311;51.386;0.016;2023-11-21T15:37:56;6.93;;;2.03;;
25359;SDS011;13311;51.386;0.016;2023-11-21T15:42:58;7.93;;;2.50;;
25359;SDS011;13311;51.386;0.016;2023-11-21T15:47:59;9.85;;;2.03;;
25359;SDS011;13311;51.386;0.016;2023-11-21T15:53:01;7.85;;;2.47;;
25359;SDS011;13311;51.386;0.016;2023-11-21T15:58:04;6.75;;;1.80;;
25359;SDS011;13311;51.386;0.016;2023-11-21T16:03:06;7.15;;;1.92;;
25359;SDS011;13311;51.386;0.016;2023-11-21T16:08:09;7.28;;;1.73;;
25359;SDS011;13311;51.386;0.016;2023-11-21T16:13:10;7.75;;;1.52;;
25359;SDS011;13311;51.386;0.016;2023-11-21T16:18:13;9.18;;;2.20;;
25359;SDS011;13311;51.386;0.016;2023-11-21T16:23:14;9.60;;;2.80;;
25359;SDS011;13311;51.386;0.016;2023-11-21T16:28:16;8.57;;;2.20;;
25359;SDS011;13311;51.386;0.016;2023-11-21T16:33:18;9.32;;;2.40;;
25359;SDS011;13311;51.386;0.016;2023-11-21T16:38:19;5.32;;;1.88;;
25359;SDS011;13311;51.386;0.016;2023-11-21T16:43:20;9.27;;;2.75;;
25359;SDS011;13311;51.386;0.016;2023-11-21T16:48:21;17.80;;;3.05;;
25359;SDS011;13311;51.386;0.016;2023-11-21T16:53:21;6.97;;;2.28;;
25359;SDS011;13311;51.386;0.016;2023-11-21T16:58:22;11.38;;;4.30;;
25359;SDS011;13311;51.386;0.016;2023-11-21T17:03:23;12.23;;;4.35;;
25359;SDS011;13311;51.386;0.016;2023-11-21T17:08:24;6.82;;;2.22;;
25359;SDS011;13311;51.386;0.016;2023-11-21T17:13:25;10.63;;;2.95;;
25359;SDS011;13311;51.386;0.016;2023-11-21T17:18:26;10.65;;;2.95;;
25359;SDS011;13311;51.386;0.016;2023-11-21T17:23:27;26.73;;;3.60;;
25359;SDS011;13311;51.386;0.016;2023-11-21T17:28:28;12.07;;;2.40;;
25359;SDS011;13311;51.386;0.016;2023-11-21T17:33:29;9.20;;;2.75;;
25359;SDS011;13311;51.386;0.016;2023-11-21T17:38:30;13.93;;;3.78;;
25359;SDS011;13311;51.386;0.016;2023-11-21T17:43:32;10.80;;;3.30;;
25359;SDS011;13311;51.386;0.016;2023-11-21T17:48:37;6.63;;;2.33;;
25359;SDS011;13311;51.386;0.016;2023-11-21T17:53:40;13.30;;;3.05;;
25359;SDS011;13311;51.386;0.016;2023-11-21T17:58:43;8.38;;;2.95;;
25359;SDS011;13311;51.386;0.016;2023-11-21T18:03:45;10.73;;;3.65;;
25359;SDS011;13311;51.386;0.016;2023-11-21T18:08:45;12.82;;;3.47;;
25359;SDS011;13311;51.386;0.016;2023-11-21T18:13:46;12.82;;;3.80;;
25359;SDS011;13311;51.386;0.016;2023-11-21T18:18:47;6.05;;;2.63;;
25359;SDS011;13311;51.386;0.016;2023-11-21T18:23:50;23.98;;;3.88;;
25359;SDS011;13311;51.386;0.016;2023-11-21T18:28:50;14.93;;;3.78;;
25359;SDS011;13311;51.386;0.016;2023-11-21T18:33:52;11.65;;;3.63;;
25359;SDS011;13311;51.386;0.016;2023-11-21T18:38:53;8.30;;;3.00;;
25359;SDS011;13311;51.386;0.016;2023-11-21T18:43:54;9.02;;;3.00;;
25359;SDS011;13311;51.386;0.016;2023-11-21T18:48:54;17.42;;;3.78;;
25359;SDS011;13311;51.386;0.016;2023-11-21T18:53:56;7.10;;;2.88;;
25359;SDS011;13311;51.386;0.016;2023-11-21T18:58:56;17.08;;;4.45;;
25359;SDS011;13311;51.386;0.016;2023-11-21T19:03:58;12.18;;;3.10;;
25359;SDS011;13311;51.386;0.016;2023-11-21T19:08:59;12.80;;;4.10;;
25359;SDS011;13311;51.386;0.016;2023-11-21T19:13:59;8.40;;;2.55;;
25359;SDS011;13311;51.386;0.016;2023-11-21T19:19:00;17.33;;;3.85;;
25359;SDS011;13311;51.386;0.016;2023-11-21T19:24:01;12.88;;;3.40;;
25359;SDS011;13311;51.386;0.016;2023-11-21T19:29:02;11.00;;;3.38;;
25359;SDS011;13311;51.386;0.016;2023-11-21T19:34:04;8.57;;;2.58;;
25359;SDS011;13311;51.386;0.016;2023-11-21T19:39:05;9.43;;;3.67;;
25359;SDS011;13311;51.386;0.016;2023-11-21T19:44:08;9.57;;;3.13;;
25359;SDS011;13311;51.386;0.016;2023-11-21T19:49:08;8.23;;;2.97;;
25359;SDS011;13311;51.386;0.016;2023-11-21T19:54:09;15.43;;;4.13;;
25359;SDS011;13311;51.386;0.016;2023-11-21T19:59:10;8.63;;;2.75;;
25359;SDS011;13311;51.386;0.016;2023-11-21T20:04:15;14.82;;;4.57;;
25359;SDS011;13311;51.386;0.016;2023-11-21T20:09:16;13.30;;;3.95;;
25359;SDS011;13311;51.386;0.016;2023-11-21T20:14:17;10.00;;;3.15;;
25359;SDS011;13311;51.386;0.016;2023-11-21T20:19:17;10.60;;;3.40;;
25359;SDS011;13311;51.386;0.016;2023-11-21T20:24:18;21.77;;;3.85;;
25359;SDS011;13311;51.386;0.016;2023-11-21T20:29:19;8.93;;;2.72;;
25359;SDS011;13311;51.386;0.016;2023-11-21T20:34:20;9.30;;;3.70;;
25359;SDS011;13311;51.386;0.016;2023-11-21T20:39:20;6.90;;;2.65;;
25359;SDS011;13311;51.386;0.016;2023-11-21T20:44:21;13.82;;;3.15;;
25359;SDS011;13311;51.386;0.016;2023-11-21T20:49:23;9.45;;;2.45;;
25359;SDS011;13311;51.386;0.016;2023-11-21T20:54:23;11.15;;;3.38;;
25359;SDS011;13311;51.386;0.016;2023-11-21T20:59:24;15.52;;;3.40;;
25359;SDS011;13311;51.386;0.016;2023-11-21T21:04:25;10.68;;;3.63;;
25359;SDS011;13311;51.386;0.016;2023-11-21T21:09:25;7.35;;;3.17;;
25359;SDS011;13311;51.386;0.016;2023-11-21T21:14:26;14.20;;;3.42;;
25359;SDS011;13311;51.386;0.016;2023-11-21T21:19:29;12.88;;;2.85;;
25359;SDS011;13311;51.386;0.016;2023-11-21T21:24:30;10.27;;;2.25;;
25359;SDS011;13311;51.386;0.016;2023-11-21T21:29:30;13.45;;;3.03;;
25359;SDS011;13311;51.386;0.016;2023-11-21T21:34:31;11.73;;;2.90;;
25359;SDS011;13311;51.386;0.016;2023-11-21T21:39:32;6.70;;;2.50;;
25359;SDS011;13311;51.386;0.016;2023-11-21T21:44:33;9.80;;;3.20;;
25359;SDS011;13311;51.386;0.016;2023-11-21T21:49:34;12.68;;;3.35;;
25359;SDS011;13311;51.386;0.016;2023-11-21T21:54:35;9.77;;;2.78;;
25359;SDS011;13311;51.386;0.016;2023-11-21T21:59:36;11.52;;;3.20;;
25359;SDS011;13311;51.386;0.016;2023-11-21T22:04:37;9.38;;;2.92;;
25359;SDS011;13311;51.386;0.016;2023-11-21T22:09:39;17.13;;;3.40;;
25359;SDS011;13311;51.386;0.016;2023-11-21T22:14:40;6.47;;;2.45;;
25359;SDS011;13311;51.386;0.016;2023-11-21T22:19:41;11.68;;;3.40;;
25359;SDS011;13311;51.386;0.016;2023-11-21T22:24:41;16.58;;;3.58;;
25359;SDS011;13311;51.386;0.016;2023-11-21T22:29:42;6.30;;;2.80;;
25359;SDS011;13311;51.386;0.016;2023-11-21T22:34:43;10.32;;;3.25;;
25359;SDS011;13311;51.386;0.016;2023-11-21T22:39:43;10.38;;;2.85;;
25359;SDS011;13311;51.386;0.016;2023-11-21T22:44:45;12.20;;;4.30;;
25359;SDS011;13311;51.386;0.016;2023-11-21T22:49:46;12.68;;;2.92;;
25359;SDS011;13311;51.386;0.016;2023-11-21T22:54:47;11.35;;;2.53;;
25359;SDS011;13311;51.386;0.016;2023-11-21T22:59:48;8.98;;;2.90;;
25359;SDS011;13311;51.386;0.016;2023-11-21T23:04:50;9.52;;;3.22;;
25359;SDS011;13311;51.386;0.016;2023-11-21T23:09:51;12.50;;;3.03;;
25359;SDS011;13311;51.386;0.016;2023-11-21T23:14:51;13.23;;;2.75;;
25359;SDS011;13311;51.386;0.016;2023-11-21T23:19:52;9.45;;;2.85;;
25359;SDS011;13311;51.386;0.016;2023-11-21T23:24:53;5.50;;;2.20;;
25359;SDS011;13311;51.386;0.016;2023-11-21T23:29:54;9.20;;;2.70;;
25359;SDS011;13311;51.386;0.016;2023-11-21T23:34:54;10.20;;;2.42;;
25359;SDS011;13311;51.386;0.016;2023-11-21T23:39:55;6.40;;;2.25;;
25359;SDS011;13311;51.386;0.016;2023-11-21T23:44:58;9.30;;;2.75;;
25359;SDS011;13311;51.386;0.016;2023-11-21T23:50:00;15.27;;;3.50;;
25359;SDS011;13311;51.386;0.016;2023-11-21T23:55:04;10.88;;;2.05;;
